SKPE

Details ICAO SKPE (PEI)
Name MATECANA
Region Colombia
Timezone America/Bogota (UTC-5.0)
Plans Departing 39
Arriving 37
Stats Elevation 4,416 ft / 1,346 m (AMSL)
Location 4.812673° -75.739518°
Runways 1
Magnetic Variation 6.216° W
Sunrise 2017-12-15 11:04:16 UTC / 2017-12-15 06:04:16 Local
Sunset 2017-12-15 22:54:56 UTC / 2017-12-15 17:54:56 Local
Advertisement - Login to hide

Runways

ID Width Length Bearing (true) Bearing (mag) Surface Threshold Offset Overrun Length
08 148 ft / 45 m 6,628 ft / 2,020 m 72.24° 78.46° Asphalt 0 ft / 0 m 0 ft / 0 m
26 148 ft / 45 m 6,628 ft / 2,020 m 252.24° 258.46° Asphalt 0 ft / 0 m 0 ft / 0 m

Map

Weather


0- 5 10 15 20 25 30 35+ Temperature / ° C

Clouds and Precipitation
Forecast for 2017-12-16 06:00 UTC. Updated 20 minutes ago

Ground ~20,000 ft ~40,000 ft Winds

METAR

SKPE 160100Z VRB02KT 9999 FEW017 SCT090 22/19 A2999

TAF

Not found

Frequencies

Tower 118.70 MHz TWR
Approach 120.70 MHz PEREIRA APP
Warning: Do not use this data for real-world aviation or navigation. No guarantee of current accuracy is given.